createdAt,value
2018-03-30T00:01:18.587Z,9.88
2018-03-30T00:03:45.108Z,10.90
2018-03-30T00:06:11.611Z,11.63
2018-03-30T00:08:38.832Z,9.80
2018-03-30T00:11:05.358Z,10.77
2018-03-30T00:13:31.832Z,9.65
2018-03-30T00:15:59.182Z,10.20
2018-03-30T00:18:26.413Z,10.38
2018-03-30T00:20:52.876Z,9.10
2018-03-30T00:23:20.092Z,12.10
2018-03-30T00:25:46.547Z,10.23
2018-03-30T00:28:13.737Z,9.98
2018-03-30T00:30:40.363Z,9.32
2018-03-30T00:33:06.814Z,10.23
2018-03-30T00:35:33.342Z,10.27
2018-03-30T00:37:59.798Z,10.35
2018-03-30T00:40:26.275Z,9.88
2018-03-30T00:42:55.283Z,9.57
2018-03-30T00:45:21.772Z,9.30
2018-03-30T00:47:48.325Z,10.15
2018-03-30T00:50:15.572Z,10.32
2018-03-30T00:52:42.037Z,10.52
2018-03-30T00:55:08.553Z,9.75
2018-03-30T00:57:35.794Z,9.68
2018-03-30T01:00:02.232Z,10.27
2018-03-30T01:02:29.437Z,10.07
2018-03-30T01:04:56.095Z,10.82
2018-03-30T01:07:23.328Z,9.90
2018-03-30T01:09:49.789Z,10.98
2018-03-30T01:12:16.327Z,10.73
2018-03-30T01:14:42.856Z,9.63
2018-03-30T01:17:11.132Z,10.20
2018-03-30T01:19:37.632Z,10.45
2018-03-30T01:22:04.107Z,9.85
2018-03-30T01:24:30.652Z,10.43
2018-03-30T01:26:57.231Z,9.88
2018-03-30T01:29:23.732Z,9.90
2018-03-30T01:31:50.969Z,10.13
2018-03-30T01:34:17.430Z,9.63
2018-03-30T01:36:44.770Z,9.93
2018-03-30T01:39:12.059Z,10.73
2018-03-30T01:41:38.562Z,12.65
2018-03-30T01:44:05.779Z,11.12
2018-03-30T01:46:32.378Z,11.85
2018-03-30T01:48:58.819Z,10.63
2018-03-30T01:51:25.384Z,10.68
2018-03-30T01:53:51.829Z,10.30
2018-03-30T01:56:18.298Z,10.07
2018-03-30T01:58:45.638Z,9.93
2018-03-30T02:01:12.103Z,9.77
2018-03-30T02:03:38.679Z,11.10
2018-03-30T02:06:05.131Z,13.07
2018-03-30T02:08:31.619Z,12.32
2018-03-30T02:10:58.068Z,11.95
2018-03-30T02:13:24.713Z,14.05
2018-03-30T02:15:51.315Z,17.37
2018-03-30T02:18:17.864Z,13.57
2018-03-30T02:20:44.368Z,15.00
2018-03-30T02:23:10.819Z,16.25
2018-03-30T02:25:37.271Z,16.62
2018-03-30T02:28:03.685Z,8.82
2018-03-30T02:30:30.141Z,10.43
2018-03-30T02:32:56.645Z,25.15
2018-03-30T02:35:23.299Z,20.75
2018-03-30T02:37:49.744Z,23.70
2018-03-30T02:40:16.230Z,24.65
2018-03-30T02:42:43.503Z,23.95
2018-03-30T02:45:09.984Z,23.10
2018-03-30T02:47:36.553Z,22.60
2018-03-30T02:50:03.875Z,23.45
2018-03-30T02:52:30.381Z,23.70
2018-03-30T02:54:56.839Z,23.25
2018-03-30T02:57:23.300Z,24.45
2018-03-30T02:59:50.498Z,24.08
2018-03-30T03:02:16.959Z,23.17
2018-03-30T03:04:43.420Z,22.10
2018-03-30T03:07:10.733Z,24.20
2018-03-30T03:09:37.227Z,25.70
2018-03-30T03:12:03.665Z,23.10
2018-03-30T03:14:31.355Z,24.98
2018-03-30T03:16:57.816Z,25.50
2018-03-30T03:19:24.316Z,23.90
2018-03-30T03:21:50.791Z,25.90
2018-03-30T03:24:17.274Z,21.85
2018-03-30T03:26:43.908Z,23.87
2018-03-30T03:29:10.339Z,23.00
2018-03-30T03:31:36.951Z,21.45
2018-03-30T03:34:04.215Z,20.88
2018-03-30T03:36:30.703Z,18.92
2018-03-30T03:38:57.901Z,18.70
2018-03-30T03:41:24.520Z,15.80
2018-03-30T03:43:51.749Z,15.85
2018-03-30T03:46:18.216Z,19.35
2018-03-30T03:48:44.736Z,18.45
2018-03-30T03:51:12.035Z,16.95
2018-03-30T03:53:38.532Z,19.37
2018-03-30T03:56:05.736Z,21.02
2018-03-30T03:58:32.327Z,19.08
2018-03-30T04:00:58.793Z,19.62
2018-03-30T04:03:25.313Z,18.70
2018-03-30T04:05:51.735Z,19.70
2018-03-30T04:08:18.898Z,19.52
2018-03-30T04:10:45.370Z,19.75
2018-03-30T04:13:11.830Z,16.45
2018-03-30T04:15:39.188Z,21.80
2018-03-30T04:18:06.414Z,17.80
2018-03-30T04:20:32.938Z,18.98
2018-03-30T04:22:59.400Z,18.92
2018-03-30T04:25:25.899Z,18.75
2018-03-30T04:27:52.343Z,20.60
2018-03-30T04:30:18.771Z,17.08
2018-03-30T04:32:45.236Z,21.08
2018-03-30T04:35:12.432Z,20.85
2018-03-30T04:37:38.932Z,19.70
2018-03-30T04:40:06.140Z,19.90
2018-03-30T04:42:32.556Z,19.87
2018-03-30T04:44:59.013Z,19.60
2018-03-30T04:47:25.453Z,19.17
2018-03-30T04:49:51.955Z,18.60
2018-03-30T04:52:18.401Z,20.35
2018-03-30T04:54:44.876Z,19.45
2018-03-30T04:57:12.048Z,20.15
2018-03-30T04:59:38.507Z,19.50
2018-03-30T05:02:04.992Z,16.90
2018-03-30T05:04:32.187Z,19.87
2018-03-30T05:06:58.712Z,20.75
2018-03-30T05:09:25.203Z,19.80
2018-03-30T05:11:51.768Z,20.37
2018-03-30T05:14:18.285Z,16.02
2018-03-30T05:16:45.511Z,19.30
2018-03-30T05:19:11.941Z,15.82
2018-03-30T05:21:38.437Z,17.80
2018-03-30T05:24:04.906Z,21.60
2018-03-30T05:26:31.370Z,18.95
2018-03-30T05:28:57.842Z,20.10
2018-03-30T05:31:24.249Z,16.05
2018-03-30T05:33:51.619Z,16.27
2018-03-30T05:36:18.103Z,9.13
2018-03-30T05:38:44.604Z,12.73
2018-03-30T05:41:11.095Z,9.48
2018-03-30T05:43:38.349Z,13.10
2018-03-30T05:46:05.573Z,15.25
2018-03-30T05:48:32.129Z,14.52
2018-03-30T05:50:59.371Z,13.75
2018-03-30T05:53:26.665Z,14.77
2018-03-30T05:55:53.228Z,14.65
2018-03-30T05:58:19.807Z,13.48
2018-03-30T06:00:47.029Z,12.73
2018-03-30T06:03:13.496Z,14.75
2018-03-30T06:05:40.767Z,10.60
2018-03-30T06:08:07.236Z,13.18
2018-03-30T06:10:33.722Z,15.23
2018-03-30T06:13:00.192Z,8.07
2018-03-30T06:15:26.822Z,15.25
2018-03-30T06:17:53.286Z,13.68
2018-03-30T06:20:19.859Z,15.07
2018-03-30T06:22:47.146Z,16.63
2018-03-30T06:25:13.588Z,14.00
2018-03-30T06:27:40.110Z,11.43
2018-03-30T06:30:06.573Z,13.40
2018-03-30T06:32:33.087Z,14.03
2018-03-30T06:34:59.583Z,15.37
2018-03-30T06:37:26.801Z,14.53
2018-03-30T06:39:53.306Z,13.70
2018-03-30T06:42:19.779Z,14.77
2018-03-30T06:44:46.330Z,14.63
2018-03-30T06:47:13.584Z,15.03
2018-03-30T06:49:40.818Z,14.60
2018-03-30T06:52:07.255Z,11.03
2018-03-30T06:54:33.856Z,14.07
2018-03-30T06:57:00.309Z,14.73
2018-03-30T06:59:26.887Z,13.53
2018-03-30T07:01:54.168Z,9.20
2018-03-30T07:04:20.594Z,9.53
2018-03-30T07:06:47.193Z,10.60
2018-03-30T07:09:14.475Z,9.30
2018-03-30T07:11:40.932Z,6.90
2018-03-30T07:14:07.551Z,6.80
2018-03-30T07:16:34.041Z,7.03
2018-03-30T07:19:00.542Z,6.23
2018-03-30T07:21:27.020Z,7.00
2018-03-30T07:23:53.530Z,8.20
2018-03-30T07:26:20.059Z,8.53
2018-03-30T07:28:46.561Z,8.60
2018-03-30T07:31:13.064Z,7.60
2018-03-30T07:33:39.647Z,10.50
2018-03-30T07:36:06.163Z,11.77
2018-03-30T07:38:32.624Z,8.43
2018-03-30T07:40:59.258Z,7.50
2018-03-30T07:43:25.739Z,8.60
2018-03-30T07:45:52.167Z,11.03
2018-03-30T07:48:18.595Z,10.77
2018-03-30T07:50:45.121Z,9.60
2018-03-30T07:53:11.609Z,8.70
2018-03-30T07:55:38.143Z,7.77
2018-03-30T07:58:04.662Z,8.73
2018-03-30T08:00:31.496Z,6.03
2018-03-30T08:02:58.758Z,4.50
2018-03-30T08:05:25.271Z,6.40
2018-03-30T08:07:52.568Z,6.13
2018-03-30T08:10:19.128Z,5.10
2018-03-30T08:12:46.402Z,7.37
2018-03-30T08:15:12.920Z,4.20
2018-03-30T08:17:39.456Z,6.27
2018-03-30T08:20:05.987Z,5.70
2018-03-30T08:22:32.515Z,4.60
2018-03-30T08:24:59.103Z,6.10
2018-03-30T08:27:26.288Z,5.30
2018-03-30T08:29:52.777Z,4.23
2018-03-30T08:32:19.384Z,4.90
2018-03-30T08:34:45.817Z,4.30
2018-03-30T08:37:12.457Z,6.07
2018-03-30T08:39:38.931Z,4.63
2018-03-30T08:42:06.140Z,4.30
2018-03-30T08:44:32.700Z,5.00
2018-03-30T08:47:00.029Z,3.07
2018-03-30T08:49:26.557Z,5.33
2018-03-30T08:51:53.104Z,3.43
2018-03-30T08:54:19.639Z,4.20
2018-03-30T08:56:46.154Z,2.53
2018-03-30T08:59:12.692Z,3.27
2018-03-30T09:01:39.937Z,3.33
2018-03-30T09:04:06.462Z,4.70
2018-03-30T09:06:33.032Z,3.10
2018-03-30T09:08:59.763Z,3.60
2018-03-30T09:11:26.283Z,4.90
2018-03-30T09:13:52.780Z,4.60
2018-03-30T09:16:19.314Z,3.90
2018-03-30T09:18:45.886Z,3.33
2018-03-30T09:21:12.469Z,5.40
2018-03-30T09:23:39.762Z,3.77
2018-03-30T09:26:06.258Z,4.63
2018-03-30T09:28:33.540Z,3.07
2018-03-30T09:31:00.143Z,3.13
2018-03-30T09:33:27.557Z,1.93
2018-03-30T09:35:54.047Z,4.37
2018-03-30T09:38:21.291Z,4.50
2018-03-30T09:40:47.791Z,3.47
2018-03-30T09:43:14.311Z,3.80
2018-03-30T09:45:40.847Z,3.40
2018-03-30T09:48:07.407Z,3.23
2018-03-30T09:50:33.996Z,4.43
2018-03-30T09:53:00.479Z,3.27
2018-03-30T09:55:27.134Z,3.30
2018-03-30T09:57:54.464Z,2.50
2018-03-30T10:00:21.366Z,2.60
2018-03-30T10:02:47.818Z,1.77
2018-03-30T10:05:14.763Z,1.67
2018-03-30T10:07:42.133Z,2.10
2018-03-30T10:10:08.684Z,2.17
2018-03-30T10:12:35.212Z,2.10
2018-03-30T10:15:01.813Z,2.33
2018-03-30T10:17:28.255Z,2.70
2018-03-30T10:19:54.711Z,1.87
2018-03-30T10:22:21.279Z,1.90
2018-03-30T10:24:48.921Z,1.20
2018-03-30T10:27:23.802Z,1.50
2018-03-30T10:29:58.052Z,1.70
2018-03-30T10:32:24.775Z,1.90
2018-03-30T10:34:51.277Z,2.23
2018-03-30T10:37:18.486Z,1.50
2018-03-30T10:39:44.946Z,1.70
2018-03-30T10:42:12.168Z,1.67
2018-03-30T10:44:40.932Z,1.43
2018-03-30T10:47:07.581Z,1.80
2018-03-30T10:49:34.081Z,1.33
2018-03-30T10:52:01.665Z,1.50
2018-03-30T10:54:28.155Z,1.50
2018-03-30T10:56:55.593Z,1.30
2018-03-30T10:59:22.081Z,1.30
2018-03-30T11:01:48.663Z,2.00
2018-03-30T11:04:15.231Z,1.40
2018-03-30T11:06:41.880Z,1.20
2018-03-30T11:09:08.532Z,1.90
2018-03-30T11:11:35.167Z,1.80
2018-03-30T11:14:04.311Z,1.60
2018-03-30T11:16:30.850Z,1.13
2018-03-30T11:18:57.463Z,1.80
2018-03-30T11:21:24.127Z,1.67
2018-03-30T11:23:50.811Z,1.60
2018-03-30T11:26:17.312Z,1.73
2018-03-30T11:28:44.889Z,1.80
2018-03-30T11:31:11.420Z,1.50
2018-03-30T11:33:38.604Z,1.70
2018-03-30T11:36:05.882Z,1.70
2018-03-30T11:38:32.378Z,2.23
2018-03-30T11:40:58.871Z,2.13
2018-03-30T11:43:26.375Z,2.67
2018-03-30T11:48:25.994Z,2.30
2018-03-30T11:50:52.647Z,2.20
2018-03-30T11:53:19.126Z,1.87
2018-03-30T11:55:46.637Z,2.07
2018-03-30T11:58:13.298Z,1.80
2018-03-30T12:00:39.923Z,2.60
2018-03-30T12:03:06.739Z,2.10
2018-03-30T12:05:33.258Z,1.83
2018-03-30T12:10:34.986Z,2.90
2018-03-30T12:13:01.516Z,2.10
2018-03-30T12:15:28.040Z,2.50
2018-03-30T12:17:54.563Z,1.57
2018-03-30T12:20:21.076Z,1.97
2018-03-30T12:22:47.580Z,2.00
2018-03-30T12:25:14.556Z,2.70
2018-03-30T12:27:41.034Z,2.77
2018-03-30T12:30:07.473Z,1.70
2018-03-30T12:32:33.953Z,2.47
2018-03-30T12:35:00.432Z,1.70
2018-03-30T12:37:27.001Z,1.90
2018-03-30T12:39:54.231Z,3.23
2018-03-30T12:42:20.794Z,3.20
2018-03-30T12:44:48.169Z,3.20
2018-03-30T12:47:14.701Z,2.53
2018-03-30T12:49:41.216Z,2.50
2018-03-30T12:52:08.527Z,2.30
2018-03-30T12:54:35.038Z,2.70
2018-03-30T12:57:01.511Z,4.90
2018-03-30T12:59:28.168Z,2.83
2018-03-30T13:01:55.386Z,4.70
2018-03-30T13:04:21.898Z,2.40
2018-03-30T13:06:48.362Z,4.43
2018-03-30T13:09:14.948Z,2.90
2018-03-30T13:11:41.993Z,3.20
2018-03-30T13:14:08.470Z,3.00
2018-03-30T13:16:35.115Z,3.47
2018-03-30T13:19:01.980Z,2.53
2018-03-30T13:21:28.539Z,1.90
2018-03-30T13:23:55.061Z,3.90
2018-03-30T13:26:22.327Z,4.53
2018-03-30T13:28:49.692Z,3.17
2018-03-30T13:31:16.199Z,3.30
2018-03-30T13:33:42.711Z,3.47
2018-03-30T13:36:10.404Z,3.40
2018-03-30T13:38:37.718Z,3.90
2018-03-30T13:41:05.238Z,4.30
2018-03-30T13:43:31.787Z,3.53
2018-03-30T13:45:58.239Z,3.57
2018-03-30T13:48:24.982Z,3.20
2018-03-30T13:50:53.258Z,3.47
2018-03-30T13:53:21.540Z,2.70
2018-03-30T13:55:49.227Z,2.47
2018-03-30T13:58:17.521Z,2.50
2018-03-30T14:00:52.648Z,2.10
2018-03-30T14:03:48.628Z,2.57
2018-03-30T14:06:25.800Z,2.53
2018-03-30T14:08:57.146Z,3.37
2018-03-30T14:11:24.536Z,2.60
2018-03-30T14:13:51.274Z,2.57
2018-03-30T14:16:20.828Z,2.40
2018-03-30T14:19:06.222Z,2.80
2018-03-30T14:21:33.577Z,2.80
2018-03-30T14:24:02.697Z,2.07
2018-03-30T14:26:33.338Z,1.90
2018-03-30T14:29:06.730Z,1.97
2018-03-30T14:31:34.063Z,2.60
2018-03-30T14:34:00.502Z,2.90
2018-03-30T14:39:52.208Z,1.80
2018-03-30T14:42:19.624Z,2.73
2018-03-30T14:44:47.024Z,2.63
2018-03-30T14:47:17.216Z,2.80
2018-03-30T14:49:48.393Z,2.23
2018-03-30T14:52:25.982Z,3.43
2018-03-30T14:55:00.064Z,3.20
2018-03-30T14:57:27.487Z,3.27
2018-03-30T15:00:05.072Z,2.63
2018-03-30T15:02:35.328Z,2.30
2018-03-30T15:05:28.600Z,3.00
2018-03-30T15:08:09.111Z,2.10
2018-03-30T15:10:41.419Z,2.33
2018-03-30T15:13:25.647Z,1.47
2018-03-30T15:16:09.074Z,2.40
2018-03-30T15:18:38.289Z,2.40
2018-03-30T15:21:04.768Z,1.93
2018-03-30T15:23:33.921Z,1.60
2018-03-30T15:26:18.011Z,1.30
2018-03-30T15:28:56.935Z,1.30
2018-03-30T15:31:27.681Z,1.20
2018-03-30T15:34:06.232Z,1.30
2018-03-30T15:36:49.617Z,1.10
2018-03-30T15:39:16.141Z,1.00
2018-03-30T15:41:45.641Z,1.30
2018-03-30T15:44:12.241Z,1.10
2018-03-30T15:49:45.814Z,0.80
2018-03-30T15:52:13.216Z,1.10
2018-03-30T15:54:39.733Z,1.27
2018-03-30T15:57:06.250Z,1.53
2018-03-30T15:59:32.709Z,1.30
2018-03-30T16:01:59.279Z,1.13
2018-03-30T16:04:26.461Z,1.00
2018-03-30T16:06:52.924Z,1.37
2018-03-30T16:09:21.986Z,0.80
2018-03-30T16:11:48.557Z,1.50
2018-03-30T16:14:14.991Z,1.77
2018-03-30T16:16:42.185Z,1.70
2018-03-30T16:19:08.450Z,1.30
2018-03-30T16:21:35.473Z,1.37
2018-03-30T16:24:01.837Z,1.30
2018-03-30T16:26:28.101Z,1.67
2018-03-30T16:28:54.315Z,1.50
2018-03-30T16:31:20.563Z,1.70
2018-03-30T16:33:48.450Z,1.10
2018-03-30T16:36:14.661Z,1.80
2018-03-30T16:38:41.555Z,2.00
2018-03-30T16:41:07.935Z,1.40
2018-03-30T16:43:38.445Z,1.53
2018-03-30T16:46:04.581Z,0.90
2018-03-30T16:48:31.542Z,1.43
2018-03-30T16:50:57.804Z,1.20
2018-03-30T16:53:24.020Z,1.53
2018-03-30T16:55:50.237Z,1.13
2018-03-30T16:58:16.415Z,0.83
2018-03-30T17:00:42.589Z,1.20
2018-03-30T17:03:08.762Z,1.20
2018-03-30T17:05:34.960Z,1.40
2018-03-30T17:08:01.108Z,1.30
2018-03-30T17:10:27.333Z,1.70
2018-03-30T17:12:53.493Z,1.27
2018-03-30T17:15:21.335Z,1.40
2018-03-30T17:17:47.475Z,1.33
2018-03-30T17:20:13.579Z,1.70
2018-03-30T17:22:39.845Z,1.30
2018-03-30T17:25:06.713Z,0.70
2018-03-30T17:27:32.941Z,0.60
2018-03-30T17:29:59.935Z,1.50
2018-03-30T17:32:26.273Z,1.30
2018-03-30T17:34:53.134Z,1.10
2018-03-30T17:37:20.652Z,1.57
2018-03-30T17:39:47.024Z,1.10
2018-03-30T17:42:13.283Z,0.80
2018-03-30T17:44:39.488Z,1.33
2018-03-30T17:47:05.664Z,1.10
2018-03-30T17:49:31.858Z,0.90
2018-03-30T17:51:59.484Z,0.90
2018-03-30T17:54:26.387Z,0.80
2018-03-30T17:56:52.637Z,0.90
2018-03-30T17:59:18.791Z,0.60
2018-03-30T18:01:46.295Z,1.47
2018-03-30T18:04:12.577Z,1.40
2018-03-30T18:06:39.497Z,1.10
2018-03-30T18:09:05.614Z,1.83
2018-03-30T18:11:31.929Z,1.03
2018-03-30T18:13:58.196Z,1.43
2018-03-30T18:16:24.622Z,0.90
2018-03-30T18:18:52.103Z,1.30
2018-03-30T18:21:18.482Z,1.50
2018-03-30T18:23:44.891Z,1.60
2018-03-30T18:26:11.070Z,1.60
2018-03-30T18:28:38.093Z,1.60
2018-03-30T18:31:04.294Z,1.47
2018-03-30T18:33:30.519Z,2.00
2018-03-30T18:35:56.809Z,1.60
2018-03-30T18:38:23.762Z,1.43
2018-03-30T18:40:49.906Z,1.23
2018-03-30T18:43:16.121Z,1.30
2018-03-30T18:45:42.256Z,1.80
2018-03-30T18:48:08.534Z,1.80
2018-03-30T18:50:35.348Z,2.40
2018-03-30T18:53:01.507Z,2.40
2018-03-30T18:55:27.743Z,1.87
2018-03-30T18:57:54.725Z,3.30
2018-03-30T19:00:20.922Z,2.60
2018-03-30T19:02:48.148Z,2.43
2018-03-30T19:05:14.334Z,3.13
2018-03-30T19:07:43.165Z,3.07
2018-03-30T19:10:09.350Z,2.53
2018-03-30T19:12:35.565Z,2.53
2018-03-30T19:15:01.765Z,3.07
2018-03-30T19:17:28.779Z,3.03
2018-03-30T19:19:54.944Z,2.57
2018-03-30T19:22:22.629Z,2.40
2018-03-30T19:24:49.133Z,2.77
2018-03-30T19:27:16.079Z,3.30
2018-03-30T19:29:42.977Z,2.73
2018-03-30T19:32:10.743Z,2.10
2018-03-30T19:34:36.937Z,2.80
2018-03-30T19:37:03.104Z,3.40
2018-03-30T19:39:29.320Z,3.90
2018-03-30T19:41:55.521Z,3.43
2018-03-30T19:44:21.660Z,3.33
2018-03-30T19:46:47.775Z,3.13
2018-03-30T19:49:13.959Z,4.43
2018-03-30T19:51:40.172Z,3.90
2018-03-30T19:54:06.470Z,3.03
2018-03-30T19:56:32.672Z,3.53
2018-03-30T19:58:58.886Z,3.47
2018-03-30T20:01:25.101Z,3.77
2018-03-30T20:03:51.995Z,5.80
2018-03-30T20:06:19.419Z,7.57
2018-03-30T20:08:45.594Z,8.90
2018-03-30T20:11:11.791Z,6.50
2018-03-30T20:13:37.954Z,7.40
2018-03-30T20:16:04.658Z,9.13
2018-03-30T20:18:31.794Z,8.40
2018-03-30T20:20:57.943Z,6.60
2018-03-30T20:23:24.230Z,9.00
2018-03-30T20:25:51.274Z,10.30
2018-03-30T20:28:18.260Z,9.55
2018-03-30T20:30:44.459Z,9.35
2018-03-30T20:33:10.687Z,7.25
2018-03-30T20:35:36.818Z,12.10
2018-03-30T20:38:02.974Z,9.57
2018-03-30T20:40:29.155Z,11.53
2018-03-30T20:42:55.401Z,12.02
2018-03-30T20:45:21.621Z,12.98
2018-03-30T20:47:47.734Z,11.32
2018-03-30T20:50:14.022Z,11.52
2018-03-30T20:52:40.259Z,13.52
2018-03-30T20:55:07.349Z,14.85
2018-03-30T20:57:33.530Z,11.48
2018-03-30T20:59:59.741Z,11.57
2018-03-30T21:02:26.008Z,13.00
2018-03-30T21:04:52.934Z,16.30
2018-03-30T21:07:19.085Z,14.55
2018-03-30T21:09:46.373Z,16.50
2018-03-30T21:12:12.523Z,15.50
2018-03-30T21:14:39.355Z,16.73
2018-03-30T21:17:06.230Z,14.32
2018-03-30T21:19:33.170Z,14.98
2018-03-30T21:21:59.286Z,15.18
2018-03-30T21:24:25.440Z,15.23
2018-03-30T21:26:52.337Z,15.27
2018-03-30T21:29:18.659Z,13.43
2018-03-30T21:31:45.589Z,18.20
2018-03-30T21:34:11.760Z,17.00
2018-03-30T21:36:37.981Z,16.87
2018-03-30T21:39:04.208Z,15.45
2018-03-30T21:41:30.409Z,13.27
2018-03-30T21:43:56.569Z,19.70
2018-03-30T21:46:22.735Z,16.92
2018-03-30T21:48:48.972Z,18.00
2018-03-30T21:51:15.110Z,10.35
2018-03-30T21:53:41.294Z,18.62
2018-03-30T21:56:08.141Z,14.95
2018-03-30T21:58:34.417Z,17.17
2018-03-30T22:01:00.603Z,14.45
2018-03-30T22:03:26.750Z,17.12
2018-03-30T22:05:53.062Z,15.15
2018-03-30T22:08:19.199Z,16.23
2018-03-30T22:10:47.048Z,16.80
2018-03-30T22:13:13.272Z,17.30
2018-03-30T22:15:39.454Z,15.65
2018-03-30T22:18:05.602Z,17.00
2018-03-30T22:20:31.900Z,16.05
2018-03-30T22:22:58.066Z,13.75
2018-03-30T22:25:24.953Z,15.25
2018-03-30T22:27:51.114Z,16.83
2018-03-30T22:30:17.351Z,15.32
2018-03-30T22:32:43.530Z,16.30
2018-03-30T22:35:09.657Z,16.10
2018-03-30T22:37:35.979Z,16.75
2018-03-30T22:40:02.132Z,17.45
2018-03-30T22:42:28.249Z,16.30
2018-03-30T22:44:54.409Z,16.70
2018-03-30T22:47:20.569Z,19.23
2018-03-30T22:49:46.814Z,13.23
2018-03-30T22:52:12.955Z,18.30
2018-03-30T22:54:39.105Z,12.37
2018-03-30T22:57:05.300Z,15.82
2018-03-30T22:59:31.421Z,15.90
2018-03-30T23:01:57.565Z,14.60
2018-03-30T23:04:23.738Z,13.60
2018-03-30T23:06:50.597Z,11.35
2018-03-30T23:09:16.779Z,13.62
2018-03-30T23:11:42.957Z,10.63
2018-03-30T23:14:09.155Z,16.25
2018-03-30T23:16:36.061Z,15.32
2018-03-30T23:19:02.285Z,15.85
2018-03-30T23:21:29.232Z,10.20
2018-03-30T23:23:55.490Z,14.00
2018-03-30T23:26:22.426Z,12.32
2018-03-30T23:28:48.585Z,9.95
2018-03-30T23:31:14.747Z,9.10
2018-03-30T23:33:40.883Z,12.82
2018-03-30T23:36:07.093Z,10.55
2018-03-30T23:38:33.243Z,12.75
2018-03-30T23:40:59.376Z,8.80
2018-03-30T23:43:25.599Z,7.60
2018-03-30T23:45:52.726Z,6.15
2018-03-30T23:48:19.907Z,11.48
2018-03-30T23:50:46.086Z,9.30
2018-03-30T23:53:12.297Z,9.93
2018-03-30T23:55:38.520Z,9.18
2018-03-30T23:58:05.618Z,5.40
